Terminal Aerodrome Forecast
Issued by NWS

Home | Current Version | Previous Version | Text Only | Print | Product List | Glossary On
Versions: 1 2 3 4 5 6 7 8 9 10 11 12 13 14
000
FTUS41 KPBZ 041139
TAFFKL
TAF
KFKL 041139Z 0412/0512 18006KT P6SM SCT250
     FM041600 22012G21KT P6SM SCT060 BKN250
     FM050000 21011KT P6SM BKN080
     FM050300 21007KT P6SM -SHRA OVC025
     FM050800 26008KT 3SM -SHRA BR OVC010
      AMD LTD TO CLD VIS AND WIND=

USA.gov is the U.S. government's official web portal to all federal, state and local government web resources and services.